sensor_id;sensor_type;location;lat;lon;timestamp;P1;durP1;ratioP1;P2;durP2;ratioP2
11988;SDS011;6054;50.966;7.094;2023-03-02T00:01:40;9.67;;;5.87;;
11988;SDS011;6054;50.966;7.094;2023-03-02T00:04:11;8.43;;;5.43;;
11988;SDS011;6054;50.966;7.094;2023-03-02T00:06:41;10.50;;;6.40;;
11988;SDS011;6054;50.966;7.094;2023-03-02T00:09:08;9.63;;;6.50;;
11988;SDS011;6054;50.966;7.094;2023-03-02T00:11:35;10.70;;;5.63;;
11988;SDS011;6054;50.966;7.094;2023-03-02T00:14:03;14.60;;;7.07;;
11988;SDS011;6054;50.966;7.094;2023-03-02T00:16:30;8.27;;;6.20;;
11988;SDS011;6054;50.966;7.094;2023-03-02T00:18:58;8.80;;;6.00;;
11988;SDS011;6054;50.966;7.094;2023-03-02T00:21:25;11.80;;;6.50;;
11988;SDS011;6054;50.966;7.094;2023-03-02T00:23:52;10.60;;;6.07;;
11988;SDS011;6054;50.966;7.094;2023-03-02T00:26:19;12.30;;;7.23;;
11988;SDS011;6054;50.966;7.094;2023-03-02T00:28:46;10.20;;;6.73;;
11988;SDS011;6054;50.966;7.094;2023-03-02T00:31:13;13.33;;;7.17;;
11988;SDS011;6054;50.966;7.094;2023-03-02T00:33:40;10.67;;;6.77;;
11988;SDS011;6054;50.966;7.094;2023-03-02T00:36:14;13.60;;;7.33;;
11988;SDS011;6054;50.966;7.094;2023-03-02T00:38:42;10.03;;;6.27;;
11988;SDS011;6054;50.966;7.094;2023-03-02T00:41:09;9.53;;;6.60;;
11988;SDS011;6054;50.966;7.094;2023-03-02T00:43:37;10.67;;;6.40;;
11988;SDS011;6054;50.966;7.094;2023-03-02T00:46:09;13.57;;;6.87;;
11988;SDS011;6054;50.966;7.094;2023-03-02T00:48:38;11.50;;;6.37;;
11988;SDS011;6054;50.966;7.094;2023-03-02T00:51:05;11.27;;;6.70;;
11988;SDS011;6054;50.966;7.094;2023-03-02T00:53:34;11.03;;;6.90;;
11988;SDS011;6054;50.966;7.094;2023-03-02T00:56:02;10.60;;;6.70;;
11988;SDS011;6054;50.966;7.094;2023-03-02T00:58:30;10.63;;;6.30;;
11988;SDS011;6054;50.966;7.094;2023-03-02T01:00:57;11.37;;;6.33;;
11988;SDS011;6054;50.966;7.094;2023-03-02T01:03:25;11.13;;;6.37;;
11988;SDS011;6054;50.966;7.094;2023-03-02T01:05:51;17.37;;;6.37;;
11988;SDS011;6054;50.966;7.094;2023-03-02T01:08:19;9.93;;;5.53;;
11988;SDS011;6054;50.966;7.094;2023-03-02T01:10:47;10.83;;;6.03;;
11988;SDS011;6054;50.966;7.094;2023-03-02T01:13:14;8.83;;;6.00;;
11988;SDS011;6054;50.966;7.094;2023-03-02T01:15:41;8.83;;;6.50;;
11988;SDS011;6054;50.966;7.094;2023-03-02T01:18:08;8.83;;;6.20;;
11988;SDS011;6054;50.966;7.094;2023-03-02T01:20:34;9.10;;;5.67;;
11988;SDS011;6054;50.966;7.094;2023-03-02T01:23:01;8.03;;;5.77;;
11988;SDS011;6054;50.966;7.094;2023-03-02T01:25:28;8.93;;;5.90;;
11988;SDS011;6054;50.966;7.094;2023-03-02T01:27:56;7.70;;;5.90;;
11988;SDS011;6054;50.966;7.094;2023-03-02T01:30:23;7.73;;;5.73;;
11988;SDS011;6054;50.966;7.094;2023-03-02T01:32:49;7.87;;;5.37;;
11988;SDS011;6054;50.966;7.094;2023-03-02T01:35:16;9.20;;;6.07;;
11988;SDS011;6054;50.966;7.094;2023-03-02T01:37:43;8.60;;;6.03;;
11988;SDS011;6054;50.966;7.094;2023-03-02T01:40:10;8.73;;;5.57;;
11988;SDS011;6054;50.966;7.094;2023-03-02T01:42:39;9.97;;;5.97;;
11988;SDS011;6054;50.966;7.094;2023-03-02T01:48:10;8.93;;;5.93;;
11988;SDS011;6054;50.966;7.094;2023-03-02T01:50:38;9.50;;;6.20;;
11988;SDS011;6054;50.966;7.094;2023-03-02T01:53:06;9.70;;;6.30;;
11988;SDS011;6054;50.966;7.094;2023-03-02T01:55:33;9.07;;;6.03;;
11988;SDS011;6054;50.966;7.094;2023-03-02T01:58:03;10.23;;;6.57;;
11988;SDS011;6054;50.966;7.094;2023-03-02T02:00:32;8.03;;;5.90;;
11988;SDS011;6054;50.966;7.094;2023-03-02T02:03:04;8.93;;;5.73;;
11988;SDS011;6054;50.966;7.094;2023-03-02T02:05:35;10.63;;;5.77;;
11988;SDS011;6054;50.966;7.094;2023-03-02T02:08:05;9.27;;;5.80;;
11988;SDS011;6054;50.966;7.094;2023-03-02T02:10:32;8.77;;;6.23;;
11988;SDS011;6054;50.966;7.094;2023-03-02T02:12:59;7.63;;;5.60;;
11988;SDS011;6054;50.966;7.094;2023-03-02T02:15:26;9.63;;;6.20;;
11988;SDS011;6054;50.966;7.094;2023-03-02T02:17:53;9.40;;;5.80;;
11988;SDS011;6054;50.966;7.094;2023-03-02T02:20:24;8.20;;;5.90;;
11988;SDS011;6054;50.966;7.094;2023-03-02T02:22:59;8.20;;;5.67;;
11988;SDS011;6054;50.966;7.094;2023-03-02T02:25:43;10.60;;;5.60;;
11988;SDS011;6054;50.966;7.094;2023-03-02T02:28:13;9.20;;;5.90;;
11988;SDS011;6054;50.966;7.094;2023-03-02T02:30:44;9.33;;;5.80;;
11988;SDS011;6054;50.966;7.094;2023-03-02T02:33:12;8.60;;;6.00;;
11988;SDS011;6054;50.966;7.094;2023-03-02T02:35:41;8.47;;;6.07;;
11988;SDS011;6054;50.966;7.094;2023-03-02T02:38:11;9.53;;;6.43;;
11988;SDS011;6054;50.966;7.094;2023-03-02T02:40:44;7.50;;;5.43;;
11988;SDS011;6054;50.966;7.094;2023-03-02T02:43:15;9.50;;;6.17;;
11988;SDS011;6054;50.966;7.094;2023-03-02T02:45:45;7.37;;;5.77;;
11988;SDS011;6054;50.966;7.094;2023-03-02T02:48:14;8.63;;;5.67;;
11988;SDS011;6054;50.966;7.094;2023-03-02T02:50:43;9.17;;;5.20;;
11988;SDS011;6054;50.966;7.094;2023-03-02T02:53:12;7.07;;;5.53;;
11988;SDS011;6054;50.966;7.094;2023-03-02T02:55:43;8.80;;;5.60;;
11988;SDS011;6054;50.966;7.094;2023-03-02T02:58:15;8.67;;;6.10;;
11988;SDS011;6054;50.966;7.094;2023-03-02T03:00:50;7.73;;;5.87;;
11988;SDS011;6054;50.966;7.094;2023-03-02T03:03:22;7.17;;;5.60;;
11988;SDS011;6054;50.966;7.094;2023-03-02T03:05:54;8.33;;;5.87;;
11988;SDS011;6054;50.966;7.094;2023-03-02T03:11:16;9.60;;;5.60;;
11988;SDS011;6054;50.966;7.094;2023-03-02T03:13:48;6.30;;;4.73;;
11988;SDS011;6054;50.966;7.094;2023-03-02T03:16:20;7.50;;;5.47;;
11988;SDS011;6054;50.966;7.094;2023-03-02T03:18:48;6.90;;;5.47;;
11988;SDS011;6054;50.966;7.094;2023-03-02T03:21:17;8.30;;;5.43;;
11988;SDS011;6054;50.966;7.094;2023-03-02T03:23:44;6.53;;;5.00;;
11988;SDS011;6054;50.966;7.094;2023-03-02T03:26:10;7.67;;;5.40;;
11988;SDS011;6054;50.966;7.094;2023-03-02T03:28:37;8.53;;;5.53;;
11988;SDS011;6054;50.966;7.094;2023-03-02T03:31:05;8.17;;;5.80;;
11988;SDS011;6054;50.966;7.094;2023-03-02T03:33:32;9.00;;;5.40;;
11988;SDS011;6054;50.966;7.094;2023-03-02T03:35:59;7.20;;;4.70;;
11988;SDS011;6054;50.966;7.094;2023-03-02T03:38:26;8.10;;;5.20;;
11988;SDS011;6054;50.966;7.094;2023-03-02T03:40:53;8.20;;;5.43;;
11988;SDS011;6054;50.966;7.094;2023-03-02T03:43:20;8.30;;;5.20;;
11988;SDS011;6054;50.966;7.094;2023-03-02T03:45:46;7.97;;;5.13;;
11988;SDS011;6054;50.966;7.094;2023-03-02T03:48:16;8.10;;;5.03;;
11988;SDS011;6054;50.966;7.094;2023-03-02T03:50:43;8.73;;;5.60;;
11988;SDS011;6054;50.966;7.094;2023-03-02T03:53:10;7.67;;;5.07;;
11988;SDS011;6054;50.966;7.094;2023-03-02T03:55:37;6.97;;;5.23;;
11988;SDS011;6054;50.966;7.094;2023-03-02T03:58:03;8.03;;;5.00;;
11988;SDS011;6054;50.966;7.094;2023-03-02T04:00:30;6.33;;;5.10;;
11988;SDS011;6054;50.966;7.094;2023-03-02T04:02:57;7.57;;;5.07;;
11988;SDS011;6054;50.966;7.094;2023-03-02T04:05:25;9.20;;;5.13;;
11988;SDS011;6054;50.966;7.094;2023-03-02T04:07:52;7.87;;;5.80;;
11988;SDS011;6054;50.966;7.094;2023-03-02T04:10:19;6.37;;;4.80;;
11988;SDS011;6054;50.966;7.094;2023-03-02T04:12:46;8.13;;;5.20;;
11988;SDS011;6054;50.966;7.094;2023-03-02T04:15:14;9.47;;;5.30;;
11988;SDS011;6054;50.966;7.094;2023-03-02T04:17:41;11.67;;;5.27;;
11988;SDS011;6054;50.966;7.094;2023-03-02T04:20:09;6.87;;;4.83;;
11988;SDS011;6054;50.966;7.094;2023-03-02T04:22:41;7.10;;;5.17;;
11988;SDS011;6054;50.966;7.094;2023-03-02T04:25:09;7.87;;;5.00;;
11988;SDS011;6054;50.966;7.094;2023-03-02T04:27:36;8.37;;;5.47;;
11988;SDS011;6054;50.966;7.094;2023-03-02T04:30:03;8.73;;;5.20;;
11988;SDS011;6054;50.966;7.094;2023-03-02T04:32:31;6.97;;;5.13;;
11988;SDS011;6054;50.966;7.094;2023-03-02T04:34:58;9.37;;;6.10;;
11988;SDS011;6054;50.966;7.094;2023-03-02T04:37:25;6.47;;;5.17;;
11988;SDS011;6054;50.966;7.094;2023-03-02T04:39:53;9.07;;;5.80;;
11988;SDS011;6054;50.966;7.094;2023-03-02T04:42:20;9.03;;;5.53;;
11988;SDS011;6054;50.966;7.094;2023-03-02T04:44:47;8.50;;;5.30;;
11988;SDS011;6054;50.966;7.094;2023-03-02T04:47:14;6.73;;;4.97;;
11988;SDS011;6054;50.966;7.094;2023-03-02T04:49:41;6.47;;;4.73;;
11988;SDS011;6054;50.966;7.094;2023-03-02T04:52:08;6.70;;;5.23;;
11988;SDS011;6054;50.966;7.094;2023-03-02T04:54:35;8.63;;;5.10;;
11988;SDS011;6054;50.966;7.094;2023-03-02T04:57:03;10.57;;;5.30;;
11988;SDS011;6054;50.966;7.094;2023-03-02T04:59:32;9.50;;;5.30;;
11988;SDS011;6054;50.966;7.094;2023-03-02T05:02:00;8.87;;;5.43;;
11988;SDS011;6054;50.966;7.094;2023-03-02T05:04:27;7.47;;;5.23;;
11988;SDS011;6054;50.966;7.094;2023-03-02T05:06:54;8.20;;;5.10;;
11988;SDS011;6054;50.966;7.094;2023-03-02T05:09:21;9.00;;;5.43;;
11988;SDS011;6054;50.966;7.094;2023-03-02T05:11:51;7.33;;;5.13;;
11988;SDS011;6054;50.966;7.094;2023-03-02T05:14:20;10.23;;;5.77;;
11988;SDS011;6054;50.966;7.094;2023-03-02T05:16:48;9.17;;;4.73;;
11988;SDS011;6054;50.966;7.094;2023-03-02T05:19:15;9.20;;;5.40;;
11988;SDS011;6054;50.966;7.094;2023-03-02T05:21:42;7.23;;;4.93;;
11988;SDS011;6054;50.966;7.094;2023-03-02T05:24:09;7.33;;;5.30;;
11988;SDS011;6054;50.966;7.094;2023-03-02T05:26:37;9.17;;;5.10;;
11988;SDS011;6054;50.966;7.094;2023-03-02T05:29:04;7.73;;;5.47;;
11988;SDS011;6054;50.966;7.094;2023-03-02T05:31:33;8.20;;;5.20;;
11988;SDS011;6054;50.966;7.094;2023-03-02T05:34:02;8.30;;;5.67;;
11988;SDS011;6054;50.966;7.094;2023-03-02T05:36:29;7.77;;;5.50;;
11988;SDS011;6054;50.966;7.094;2023-03-02T05:38:56;7.80;;;4.97;;
11988;SDS011;6054;50.966;7.094;2023-03-02T05:41:23;8.00;;;5.47;;
11988;SDS011;6054;50.966;7.094;2023-03-02T05:43:50;8.73;;;5.30;;
11988;SDS011;6054;50.966;7.094;2023-03-02T05:46:17;9.43;;;5.03;;
11988;SDS011;6054;50.966;7.094;2023-03-02T05:48:45;10.07;;;5.33;;
11988;SDS011;6054;50.966;7.094;2023-03-02T05:51:11;8.77;;;5.07;;
11988;SDS011;6054;50.966;7.094;2023-03-02T05:53:38;8.90;;;5.13;;
11988;SDS011;6054;50.966;7.094;2023-03-02T05:56:05;8.40;;;5.30;;
11988;SDS011;6054;50.966;7.094;2023-03-02T05:58:32;6.80;;;4.87;;
11988;SDS011;6054;50.966;7.094;2023-03-02T06:00:59;10.93;;;5.40;;
11988;SDS011;6054;50.966;7.094;2023-03-02T06:03:26;10.80;;;4.87;;
11988;SDS011;6054;50.966;7.094;2023-03-02T06:05:54;8.47;;;5.10;;
11988;SDS011;6054;50.966;7.094;2023-03-02T06:08:21;7.57;;;5.03;;
11988;SDS011;6054;50.966;7.094;2023-03-02T06:10:48;8.37;;;5.13;;
11988;SDS011;6054;50.966;7.094;2023-03-02T06:13:15;8.80;;;5.07;;
11988;SDS011;6054;50.966;7.094;2023-03-02T06:15:42;8.97;;;5.27;;
11988;SDS011;6054;50.966;7.094;2023-03-02T06:18:09;11.87;;;6.00;;
11988;SDS011;6054;50.966;7.094;2023-03-02T06:20:36;8.00;;;5.43;;
11988;SDS011;6054;50.966;7.094;2023-03-02T06:23:05;8.40;;;5.03;;
11988;SDS011;6054;50.966;7.094;2023-03-02T06:25:31;9.10;;;5.67;;
11988;SDS011;6054;50.966;7.094;2023-03-02T06:27:59;8.27;;;5.00;;
11988;SDS011;6054;50.966;7.094;2023-03-02T06:30:26;7.70;;;4.93;;
11988;SDS011;6054;50.966;7.094;2023-03-02T06:32:53;9.60;;;4.90;;
11988;SDS011;6054;50.966;7.094;2023-03-02T06:35:20;10.47;;;5.40;;
11988;SDS011;6054;50.966;7.094;2023-03-02T06:37:48;11.93;;;5.97;;
11988;SDS011;6054;50.966;7.094;2023-03-02T06:40:16;10.03;;;5.23;;
11988;SDS011;6054;50.966;7.094;2023-03-02T06:42:45;8.53;;;5.87;;
11988;SDS011;6054;50.966;7.094;2023-03-02T06:45:12;7.13;;;5.10;;
11988;SDS011;6054;50.966;7.094;2023-03-02T06:47:38;9.70;;;5.43;;
11988;SDS011;6054;50.966;7.094;2023-03-02T06:50:05;8.93;;;5.60;;
11988;SDS011;6054;50.966;7.094;2023-03-02T06:52:33;10.40;;;5.53;;
11988;SDS011;6054;50.966;7.094;2023-03-02T06:55:00;10.03;;;5.67;;
11988;SDS011;6054;50.966;7.094;2023-03-02T06:57:28;9.33;;;5.60;;
11988;SDS011;6054;50.966;7.094;2023-03-02T06:59:58;6.73;;;5.20;;
11988;SDS011;6054;50.966;7.094;2023-03-02T07:02:25;11.47;;;5.63;;
11988;SDS011;6054;50.966;7.094;2023-03-02T07:04:52;11.57;;;6.00;;
11988;SDS011;6054;50.966;7.094;2023-03-02T07:07:19;8.60;;;5.27;;
11988;SDS011;6054;50.966;7.094;2023-03-02T07:09:46;8.93;;;5.40;;
11988;SDS011;6054;50.966;7.094;2023-03-02T07:12:12;8.67;;;4.87;;
11988;SDS011;6054;50.966;7.094;2023-03-02T07:14:40;7.53;;;5.33;;
11988;SDS011;6054;50.966;7.094;2023-03-02T07:17:07;9.77;;;5.10;;
11988;SDS011;6054;50.966;7.094;2023-03-02T07:19:34;9.57;;;5.23;;
11988;SDS011;6054;50.966;7.094;2023-03-02T07:22:02;7.27;;;5.03;;
11988;SDS011;6054;50.966;7.094;2023-03-02T07:24:29;11.07;;;5.70;;
11988;SDS011;6054;50.966;7.094;2023-03-02T07:26:56;10.50;;;5.20;;
11988;SDS011;6054;50.966;7.094;2023-03-02T07:29:23;10.20;;;5.37;;
11988;SDS011;6054;50.966;7.094;2023-03-02T07:31:51;9.23;;;6.37;;
11988;SDS011;6054;50.966;7.094;2023-03-02T07:34:21;10.60;;;5.67;;
11988;SDS011;6054;50.966;7.094;2023-03-02T07:36:48;9.33;;;5.00;;
11988;SDS011;6054;50.966;7.094;2023-03-02T07:39:15;7.27;;;4.93;;
11988;SDS011;6054;50.966;7.094;2023-03-02T07:41:42;7.97;;;5.10;;
11988;SDS011;6054;50.966;7.094;2023-03-02T07:44:08;9.00;;;5.40;;
11988;SDS011;6054;50.966;7.094;2023-03-02T07:46:35;9.33;;;5.80;;
11988;SDS011;6054;50.966;7.094;2023-03-02T07:49:03;7.47;;;5.73;;
11988;SDS011;6054;50.966;7.094;2023-03-02T07:51:30;10.50;;;6.53;;
11988;SDS011;6054;50.966;7.094;2023-03-02T07:53:57;7.53;;;5.93;;
11988;SDS011;6054;50.966;7.094;2023-03-02T07:56:26;8.93;;;6.47;;
11988;SDS011;6054;50.966;7.094;2023-03-02T07:58:53;10.20;;;6.50;;
11988;SDS011;6054;50.966;7.094;2023-03-02T08:01:20;15.23;;;7.00;;
11988;SDS011;6054;50.966;7.094;2023-03-02T08:03:47;11.10;;;6.70;;
11988;SDS011;6054;50.966;7.094;2023-03-02T08:06:15;8.83;;;6.30;;
11988;SDS011;6054;50.966;7.094;2023-03-02T08:08:42;9.20;;;6.93;;
11988;SDS011;6054;50.966;7.094;2023-03-02T08:11:10;12.63;;;7.53;;
11988;SDS011;6054;50.966;7.094;2023-03-02T08:13:39;10.97;;;7.33;;
11988;SDS011;6054;50.966;7.094;2023-03-02T08:16:07;11.43;;;7.13;;
11988;SDS011;6054;50.966;7.094;2023-03-02T08:18:36;13.60;;;6.83;;
11988;SDS011;6054;50.966;7.094;2023-03-02T08:21:03;9.67;;;6.70;;
11988;SDS011;6054;50.966;7.094;2023-03-02T08:23:37;13.53;;;7.80;;
11988;SDS011;6054;50.966;7.094;2023-03-02T08:26:03;12.20;;;7.00;;
11988;SDS011;6054;50.966;7.094;2023-03-02T08:28:30;12.40;;;7.17;;
11988;SDS011;6054;50.966;7.094;2023-03-02T08:30:57;12.70;;;7.40;;
11988;SDS011;6054;50.966;7.094;2023-03-02T08:33:26;15.30;;;7.73;;
11988;SDS011;6054;50.966;7.094;2023-03-02T08:35:54;14.70;;;7.20;;
11988;SDS011;6054;50.966;7.094;2023-03-02T08:38:21;29.00;;;8.60;;
11988;SDS011;6054;50.966;7.094;2023-03-02T08:40:50;10.47;;;6.77;;
11988;SDS011;6054;50.966;7.094;2023-03-02T08:43:17;11.03;;;6.90;;
11988;SDS011;6054;50.966;7.094;2023-03-02T08:45:43;9.93;;;7.13;;
11988;SDS011;6054;50.966;7.094;2023-03-02T08:48:10;10.93;;;6.97;;
11988;SDS011;6054;50.966;7.094;2023-03-02T08:50:37;12.90;;;6.43;;
11988;SDS011;6054;50.966;7.094;2023-03-02T08:53:04;14.63;;;6.20;;
11988;SDS011;6054;50.966;7.094;2023-03-02T08:55:33;9.00;;;6.00;;
11988;SDS011;6054;50.966;7.094;2023-03-02T08:58:01;9.83;;;6.33;;
11988;SDS011;6054;50.966;7.094;2023-03-02T09:00:28;9.77;;;6.27;;
11988;SDS011;6054;50.966;7.094;2023-03-02T09:02:55;8.87;;;5.60;;
11988;SDS011;6054;50.966;7.094;2023-03-02T09:05:22;7.33;;;6.03;;
11988;SDS011;6054;50.966;7.094;2023-03-02T09:07:49;10.47;;;5.83;;
11988;SDS011;6054;50.966;7.094;2023-03-02T09:10:15;8.77;;;5.72;;
11988;SDS011;6054;50.966;7.094;2023-03-02T09:12:42;10.77;;;6.30;;
11988;SDS011;6054;50.966;7.094;2023-03-02T09:15:10;9.37;;;5.97;;
11988;SDS011;6054;50.966;7.094;2023-03-02T09:17:37;8.53;;;6.13;;
11988;SDS011;6054;50.966;7.094;2023-03-02T09:20:04;8.85;;;6.32;;
11988;SDS011;6054;50.966;7.094;2023-03-02T09:22:32;8.43;;;6.03;;
11988;SDS011;6054;50.966;7.094;2023-03-02T09:25:00;8.33;;;6.27;;
11988;SDS011;6054;50.966;7.094;2023-03-02T09:27:26;8.43;;;6.18;;
11988;SDS011;6054;50.966;7.094;2023-03-02T09:29:53;8.02;;;5.90;;
11988;SDS011;6054;50.966;7.094;2023-03-02T09:32:22;11.75;;;6.05;;
11988;SDS011;6054;50.966;7.094;2023-03-02T09:34:48;7.28;;;6.07;;
11988;SDS011;6054;50.966;7.094;2023-03-02T09:37:15;8.60;;;5.70;;
11988;SDS011;6054;50.966;7.094;2023-03-02T09:39:42;7.40;;;5.47;;
11988;SDS011;6054;50.966;7.094;2023-03-02T09:42:12;9.15;;;6.35;;
11988;SDS011;6054;50.966;7.094;2023-03-02T09:45:09;9.63;;;5.82;;
11988;SDS011;6054;50.966;7.094;2023-03-02T09:47:43;9.40;;;6.53;;
11988;SDS011;6054;50.966;7.094;2023-03-02T09:50:21;8.77;;;6.30;;
11988;SDS011;6054;50.966;7.094;2023-03-02T09:52:55;8.77;;;6.50;;
11988;SDS011;6054;50.966;7.094;2023-03-02T09:55:36;8.50;;;5.85;;
11988;SDS011;6054;50.966;7.094;2023-03-02T09:58:04;9.18;;;6.20;;
11988;SDS011;6054;50.966;7.094;2023-03-02T10:00:34;8.20;;;6.10;;
11988;SDS011;6054;50.966;7.094;2023-03-02T10:03:03;9.27;;;6.15;;
11988;SDS011;6054;50.966;7.094;2023-03-02T10:05:33;8.43;;;6.15;;
11988;SDS011;6054;50.966;7.094;2023-03-02T10:08:03;7.97;;;5.97;;
11988;SDS011;6054;50.966;7.094;2023-03-02T10:10:32;9.88;;;5.93;;
11988;SDS011;6054;50.966;7.094;2023-03-02T10:13:10;8.73;;;6.10;;
11988;SDS011;6054;50.966;7.094;2023-03-02T10:15:49;7.47;;;5.95;;
11988;SDS011;6054;50.966;7.094;2023-03-02T10:18:33;9.18;;;5.90;;
11988;SDS011;6054;50.966;7.094;2023-03-02T10:21:04;8.80;;;6.07;;
11988;SDS011;6054;50.966;7.094;2023-03-02T10:23:38;8.38;;;6.57;;
11988;SDS011;6054;50.966;7.094;2023-03-02T10:26:13;9.25;;;5.10;;
11988;SDS011;6054;50.966;7.094;2023-03-02T10:28:47;7.93;;;5.93;;
11988;SDS011;6054;50.966;7.094;2023-03-02T10:31:17;7.78;;;6.05;;
11988;SDS011;6054;50.966;7.094;2023-03-02T10:33:51;9.25;;;6.43;;
11988;SDS011;6054;50.966;7.094;2023-03-02T10:36:20;8.77;;;5.88;;
11988;SDS011;6054;50.966;7.094;2023-03-02T10:38:49;7.32;;;5.75;;
11988;SDS011;6054;50.966;7.094;2023-03-02T10:41:18;8.93;;;6.20;;
11988;SDS011;6054;50.966;7.094;2023-03-02T10:43:49;8.35;;;6.03;;
11988;SDS011;6054;50.966;7.094;2023-03-02T10:46:19;7.30;;;5.60;;
11988;SDS011;6054;50.966;7.094;2023-03-02T10:48:46;8.48;;;6.40;;
11988;SDS011;6054;50.966;7.094;2023-03-02T10:51:23;7.85;;;5.32;;
11988;SDS011;6054;50.966;7.094;2023-03-02T10:54:02;7.75;;;5.10;;
11988;SDS011;6054;50.966;7.094;2023-03-02T10:56:30;8.10;;;5.90;;
11988;SDS011;6054;50.966;7.094;2023-03-02T10:58:57;7.05;;;5.65;;
11988;SDS011;6054;50.966;7.094;2023-03-02T11:01:27;7.35;;;5.47;;
11988;SDS011;6054;50.966;7.094;2023-03-02T11:03:56;7.55;;;5.57;;
11988;SDS011;6054;50.966;7.094;2023-03-02T11:06:27;6.70;;;5.40;;
11988;SDS011;6054;50.966;7.094;2023-03-02T11:08:58;6.55;;;5.20;;
11988;SDS011;6054;50.966;7.094;2023-03-02T11:11:26;6.78;;;5.22;;
11988;SDS011;6054;50.966;7.094;2023-03-02T11:13:53;6.45;;;5.22;;
11988;SDS011;6054;50.966;7.094;2023-03-02T11:16:22;6.38;;;5.00;;
11988;SDS011;6054;50.966;7.094;2023-03-02T11:18:53;8.35;;;5.22;;
11988;SDS011;6054;50.966;7.094;2023-03-02T11:21:23;7.72;;;5.35;;
11988;SDS011;6054;50.966;7.094;2023-03-02T11:23:59;6.50;;;4.82;;
11988;SDS011;6054;50.966;7.094;2023-03-02T11:26:33;5.35;;;4.43;;
11988;SDS011;6054;50.966;7.094;2023-03-02T11:29:03;9.05;;;4.78;;
11988;SDS011;6054;50.966;7.094;2023-03-02T11:31:36;5.43;;;4.65;;
11988;SDS011;6054;50.966;7.094;2023-03-02T11:34:11;6.18;;;4.18;;
11988;SDS011;6054;50.966;7.094;2023-03-02T11:36:52;5.85;;;4.68;;
11988;SDS011;6054;50.966;7.094;2023-03-02T11:39:26;6.63;;;4.47;;
11988;SDS011;6054;50.966;7.094;2023-03-02T11:42:01;5.55;;;4.00;;
11988;SDS011;6054;50.966;7.094;2023-03-02T11:44:27;9.65;;;4.40;;
11988;SDS011;6054;50.966;7.094;2023-03-02T11:46:56;6.57;;;5.07;;
11988;SDS011;6054;50.966;7.094;2023-03-02T11:49:28;6.30;;;4.78;;
11988;SDS011;6054;50.966;7.094;2023-03-02T11:52:03;8.95;;;5.35;;
11988;SDS011;6054;50.966;7.094;2023-03-02T11:54:33;9.27;;;5.78;;
11988;SDS011;6054;50.966;7.094;2023-03-02T11:57:03;6.28;;;5.13;;
11988;SDS011;6054;50.966;7.094;2023-03-02T11:59:31;6.43;;;4.93;;
11988;SDS011;6054;50.966;7.094;2023-03-02T12:02:00;6.53;;;5.50;;
11988;SDS011;6054;50.966;7.094;2023-03-02T12:04:29;6.03;;;4.65;;
11988;SDS011;6054;50.966;7.094;2023-03-02T12:06:57;5.80;;;4.38;;
11988;SDS011;6054;50.966;7.094;2023-03-02T12:09:26;6.03;;;4.30;;
11988;SDS011;6054;50.966;7.094;2023-03-02T12:12:00;5.47;;;4.38;;
11988;SDS011;6054;50.966;7.094;2023-03-02T12:14:57;8.18;;;4.43;;
11988;SDS011;6054;50.966;7.094;2023-03-02T12:17:29;5.80;;;3.38;;
11988;SDS011;6054;50.966;7.094;2023-03-02T12:22:50;6.57;;;3.33;;
11988;SDS011;6054;50.966;7.094;2023-03-02T12:25:24;3.22;;;2.88;;
11988;SDS011;6054;50.966;7.094;2023-03-02T12:27:55;11.27;;;3.40;;
11988;SDS011;6054;50.966;7.094;2023-03-02T12:30:23;8.45;;;5.28;;
11988;SDS011;6054;50.966;7.094;2023-03-02T12:32:59;8.38;;;5.78;;
11988;SDS011;6054;50.966;7.094;2023-03-02T12:35:29;6.55;;;4.50;;
11988;SDS011;6054;50.966;7.094;2023-03-02T12:37:57;5.15;;;4.50;;
11988;SDS011;6054;50.966;7.094;2023-03-02T12:40:31;5.40;;;3.60;;
11988;SDS011;6054;50.966;7.094;2023-03-02T12:43:13;4.00;;;3.30;;
11988;SDS011;6054;50.966;7.094;2023-03-02T12:45:49;3.75;;;3.28;;
11988;SDS011;6054;50.966;7.094;2023-03-02T12:48:40;9.52;;;5.82;;
11988;SDS011;6054;50.966;7.094;2023-03-02T12:51:11;7.50;;;5.88;;
11988;SDS011;6054;50.966;7.094;2023-03-02T12:53:43;6.75;;;5.20;;
11988;SDS011;6054;50.966;7.094;2023-03-02T12:56:19;7.88;;;5.70;;
11988;SDS011;6054;50.966;7.094;2023-03-02T12:58:49;9.23;;;6.60;;
11988;SDS011;6054;50.966;7.094;2023-03-02T13:01:19;8.43;;;5.80;;
11988;SDS011;6054;50.966;7.094;2023-03-02T13:03:47;9.90;;;5.95;;
11988;SDS011;6054;50.966;7.094;2023-03-02T13:06:15;8.35;;;6.10;;
11988;SDS011;6054;50.966;7.094;2023-03-02T13:08:42;9.30;;;5.95;;
11988;SDS011;6054;50.966;7.094;2023-03-02T13:11:11;9.63;;;5.93;;
11988;SDS011;6054;50.966;7.094;2023-03-02T13:13:39;9.85;;;6.20;;
11988;SDS011;6054;50.966;7.094;2023-03-02T13:16:18;6.18;;;5.47;;
11988;SDS011;6054;50.966;7.094;2023-03-02T13:18:46;9.32;;;6.25;;
11988;SDS011;6054;50.966;7.094;2023-03-02T13:21:17;7.03;;;5.88;;
11988;SDS011;6054;50.966;7.094;2023-03-02T13:23:46;8.27;;;5.88;;
11988;SDS011;6054;50.966;7.094;2023-03-02T13:26:23;9.40;;;5.72;;
11988;SDS011;6054;50.966;7.094;2023-03-02T13:29:01;7.90;;;5.95;;
11988;SDS011;6054;50.966;7.094;2023-03-02T13:31:31;11.75;;;5.15;;
11988;SDS011;6054;50.966;7.094;2023-03-02T13:33:59;6.53;;;5.63;;
11988;SDS011;6054;50.966;7.094;2023-03-02T13:36:27;6.63;;;5.47;;
11988;SDS011;6054;50.966;7.094;2023-03-02T13:38:57;9.13;;;5.15;;
11988;SDS011;6054;50.966;7.094;2023-03-02T13:41:25;6.97;;;5.53;;
11988;SDS011;6054;50.966;7.094;2023-03-02T13:43:53;4.20;;;3.17;;
11988;SDS011;6054;50.966;7.094;2023-03-02T13:46:25;4.57;;;3.55;;
11988;SDS011;6054;50.966;7.094;2023-03-02T13:49:00;3.78;;;3.03;;
11988;SDS011;6054;50.966;7.094;2023-03-02T13:51:29;4.07;;;3.40;;
11988;SDS011;6054;50.966;7.094;2023-03-02T13:53:59;5.63;;;3.63;;
11988;SDS011;6054;50.966;7.094;2023-03-02T13:56:27;3.90;;;3.50;;
11988;SDS011;6054;50.966;7.094;2023-03-02T13:58:56;5.18;;;4.65;;
11988;SDS011;6054;50.966;7.094;2023-03-02T14:01:26;7.03;;;4.85;;
11988;SDS011;6054;50.966;7.094;2023-03-02T14:03:54;6.30;;;4.45;;
11988;SDS011;6054;50.966;7.094;2023-03-02T14:06:21;6.90;;;4.53;;
11988;SDS011;6054;50.966;7.094;2023-03-02T14:08:47;5.22;;;3.95;;
11988;SDS011;6054;50.966;7.094;2023-03-02T14:11:14;6.43;;;4.60;;
11988;SDS011;6054;50.966;7.094;2023-03-02T14:13:43;5.75;;;4.95;;
11988;SDS011;6054;50.966;7.094;2023-03-02T14:16:13;6.78;;;5.07;;
11988;SDS011;6054;50.966;7.094;2023-03-02T14:18:41;9.00;;;5.25;;
11988;SDS011;6054;50.966;7.094;2023-03-02T14:21:12;6.32;;;4.40;;
11988;SDS011;6054;50.966;7.094;2023-03-02T14:23:39;5.20;;;4.68;;
11988;SDS011;6054;50.966;7.094;2023-03-02T14:26:17;4.95;;;4.00;;
11988;SDS011;6054;50.966;7.094;2023-03-02T14:28:52;7.72;;;4.70;;
11988;SDS011;6054;50.966;7.094;2023-03-02T14:31:19;7.28;;;3.83;;
11988;SDS011;6054;50.966;7.094;2023-03-02T14:33:48;7.55;;;4.55;;
11988;SDS011;6054;50.966;7.094;2023-03-02T14:36:17;7.25;;;4.18;;
11988;SDS011;6054;50.966;7.094;2023-03-02T14:38:48;5.35;;;4.05;;
11988;SDS011;6054;50.966;7.094;2023-03-02T14:41:14;5.70;;;4.03;;
11988;SDS011;6054;50.966;7.094;2023-03-02T14:43:47;9.05;;;4.55;;
11988;SDS011;6054;50.966;7.094;2023-03-02T14:46:14;4.82;;;3.75;;
11988;SDS011;6054;50.966;7.094;2023-03-02T14:48:40;5.05;;;4.00;;
11988;SDS011;6054;50.966;7.094;2023-03-02T14:51:09;5.80;;;4.15;;
11988;SDS011;6054;50.966;7.094;2023-03-02T14:53:46;5.30;;;3.83;;
11988;SDS011;6054;50.966;7.094;2023-03-02T14:56:16;6.00;;;4.18;;
11988;SDS011;6054;50.966;7.094;2023-03-02T14:58:46;8.15;;;4.47;;
11988;SDS011;6054;50.966;7.094;2023-03-02T15:01:13;8.60;;;4.35;;
11988;SDS011;6054;50.966;7.094;2023-03-02T15:03:41;4.65;;;3.85;;
11988;SDS011;6054;50.966;7.094;2023-03-02T15:06:24;5.88;;;4.10;;
11988;SDS011;6054;50.966;7.094;2023-03-02T15:08:54;4.38;;;3.90;;
11988;SDS011;6054;50.966;7.094;2023-03-02T15:11:22;6.07;;;3.97;;
11988;SDS011;6054;50.966;7.094;2023-03-02T15:13:50;5.18;;;4.13;;
11988;SDS011;6054;50.966;7.094;2023-03-02T15:16:17;5.13;;;4.22;;
11988;SDS011;6054;50.966;7.094;2023-03-02T15:18:44;4.05;;;3.65;;